createdAt,value
2023-05-11T00:00:35.235Z,100.00
2023-05-11T00:01:34.070Z,100.00
2023-05-11T00:02:31.125Z,100.00
2023-05-11T00:03:28.244Z,100.00
2023-05-11T00:04:25.400Z,100.00
2023-05-11T00:05:22.371Z,100.00
2023-05-11T00:06:19.337Z,100.00
2023-05-11T00:07:16.296Z,100.00
2023-05-11T00:08:15.603Z,100.00
2023-05-11T00:09:13.885Z,100.00
2023-05-11T00:10:11.380Z,100.00
2023-05-11T00:11:13.091Z,100.00
2023-05-11T00:12:10.197Z,100.00
2023-05-11T00:13:07.138Z,100.00
2023-05-11T00:14:04.214Z,100.00
2023-05-11T00:15:01.259Z,100.00
2023-05-11T00:15:58.467Z,100.00
2023-05-11T00:16:55.694Z,100.00
2023-05-11T00:17:52.746Z,100.00
2023-05-11T00:18:49.903Z,100.00
2023-05-11T00:19:46.946Z,100.00
2023-05-11T00:20:43.972Z,100.00
2023-05-11T00:21:41.245Z,100.00
2023-05-11T00:22:39.372Z,100.00
2023-05-11T00:23:36.354Z,100.00
2023-05-11T00:24:33.336Z,100.00
2023-05-11T00:25:30.317Z,100.00
2023-05-11T00:26:27.337Z,100.00
2023-05-11T00:27:24.384Z,100.00
2023-05-11T00:28:22.435Z,100.00
2023-05-11T00:29:19.453Z,100.00
2023-05-11T00:30:17.209Z,100.00
2023-05-11T00:31:14.566Z,100.00
2023-05-11T00:32:11.552Z,100.00
2023-05-11T00:33:08.634Z,100.00
2023-05-11T00:34:05.573Z,100.00
2023-05-11T00:35:02.505Z,100.00
2023-05-11T00:35:59.486Z,100.00
2023-05-11T00:36:56.926Z,100.00
2023-05-11T00:37:54.193Z,100.00
2023-05-11T00:38:51.171Z,100.00
2023-05-11T00:39:48.148Z,100.00
2023-05-11T00:40:45.330Z,100.00
2023-05-11T00:41:42.310Z,100.00
2023-05-11T00:42:39.313Z,100.00
2023-05-11T00:43:36.253Z,100.00
2023-05-11T00:44:33.548Z,100.00
2023-05-11T00:45:31.255Z,100.00
2023-05-11T00:46:28.548Z,100.00
2023-05-11T00:47:25.752Z,100.00
2023-05-11T00:48:22.787Z,100.00
2023-05-11T00:49:21.770Z,100.00
2023-05-11T00:50:19.331Z,100.00
2023-05-11T00:51:16.591Z,100.00
2023-05-11T00:52:13.606Z,100.00
2023-05-11T00:53:11.768Z,100.00
2023-05-11T00:54:15.465Z,100.00
2023-05-11T00:55:14.304Z,100.00
2023-05-11T00:56:11.610Z,100.00
2023-05-11T00:57:11.763Z,100.00
2023-05-11T00:58:08.951Z,100.00
2023-05-11T00:59:06.026Z,100.00
2023-05-11T01:00:04.494Z,100.00
2023-05-11T01:01:01.643Z,100.00
2023-05-11T01:01:58.817Z,100.00
2023-05-11T01:02:56.305Z,100.00
2023-05-11T01:03:53.377Z,100.00
2023-05-11T01:04:50.488Z,100.00
2023-05-11T01:05:55.949Z,100.00
2023-05-11T01:06:58.770Z,100.00
2023-05-11T01:08:45.254Z,100.00
2023-05-11T01:10:10.409Z,100.00
2023-05-11T01:11:24.333Z,100.00
2023-05-11T01:12:39.613Z,100.00
2023-05-11T01:13:44.731Z,100.00
2023-05-11T01:15:40.345Z,100.00
2023-05-11T01:16:39.423Z,100.00
2023-05-11T01:18:09.006Z,100.00
2023-05-11T01:19:10.942Z,100.00
2023-05-11T01:20:10.395Z,100.00
2023-05-11T01:21:08.854Z,100.00
2023-05-11T01:22:31.056Z,100.00
2023-05-11T01:23:39.772Z,100.00
2023-05-11T01:24:58.167Z,100.00
2023-05-11T01:26:11.913Z,100.00
2023-05-11T01:27:30.893Z,100.00
2023-05-11T01:28:46.354Z,100.00
2023-05-11T01:30:11.209Z,100.00
2023-05-11T01:31:11.265Z,100.00
2023-05-11T01:32:18.034Z,100.00
2023-05-11T01:33:15.878Z,100.00
2023-05-11T01:34:25.602Z,100.00
2023-05-11T01:35:23.991Z,100.00
2023-05-11T01:36:21.485Z,100.00
2023-05-11T01:37:23.450Z,100.00
2023-05-11T01:38:22.313Z,100.00
2023-05-11T01:39:23.531Z,100.00
2023-05-11T01:40:24.472Z,100.00
2023-05-11T01:41:22.657Z,100.00
2023-05-11T01:42:22.311Z,100.00
2023-05-11T01:43:22.451Z,100.00
2023-05-11T01:44:20.054Z,100.00
2023-05-11T01:45:17.651Z,100.00
2023-05-11T01:46:15.907Z,100.00
2023-05-11T01:47:13.750Z,100.00
2023-05-11T01:48:18.691Z,100.00
2023-05-11T01:49:16.629Z,100.00
2023-05-11T01:50:14.130Z,100.00
2023-05-11T01:51:11.814Z,100.00
2023-05-11T01:52:10.080Z,100.00
2023-05-11T01:53:07.990Z,100.00
2023-05-11T01:54:09.666Z,100.00
2023-05-11T01:55:08.108Z,100.00
2023-05-11T01:56:06.250Z,100.00
2023-05-11T01:57:04.112Z,100.00
2023-05-11T01:58:02.151Z,100.00
2023-05-11T01:59:00.288Z,100.00
2023-05-11T01:59:57.472Z,100.00
2023-05-11T02:00:55.930Z,100.00
2023-05-11T02:01:53.467Z,100.00
2023-05-11T02:02:50.942Z,100.00
2023-05-11T02:03:49.886Z,100.00
2023-05-11T02:04:47.229Z,100.00
2023-05-11T02:05:45.191Z,100.00
2023-05-11T02:06:43.931Z,100.00
2023-05-11T02:07:43.280Z,100.00
2023-05-11T02:08:41.188Z,100.00
2023-05-11T02:09:39.088Z,100.00
2023-05-11T02:10:37.551Z,100.00
2023-05-11T02:11:35.551Z,100.00
2023-05-11T02:12:34.071Z,100.00
2023-05-11T02:13:31.588Z,100.00
2023-05-11T02:14:29.636Z,100.00
2023-05-11T02:15:27.350Z,100.00
2023-05-11T02:16:25.074Z,100.00
2023-05-11T02:17:23.315Z,100.00
2023-05-11T02:18:21.389Z,100.00
2023-05-11T02:19:18.810Z,100.00
2023-05-11T02:20:16.371Z,100.00
2023-05-11T02:21:15.194Z,100.00
2023-05-11T02:22:13.173Z,100.00
2023-05-11T02:23:10.640Z,100.00
2023-05-11T02:24:11.485Z,100.00
2023-05-11T02:25:11.668Z,100.00
2023-05-11T02:26:11.794Z,100.00
2023-05-11T02:27:09.130Z,100.00
2023-05-11T02:28:06.484Z,100.00
2023-05-11T02:29:03.575Z,100.00
2023-05-11T02:30:00.570Z,100.00
2023-05-11T02:31:01.331Z,100.00
2023-05-11T02:32:10.655Z,100.00
2023-05-11T02:33:09.101Z,100.00
2023-05-11T02:34:21.128Z,100.00
2023-05-11T02:35:22.748Z,100.00
2023-05-11T02:36:23.191Z,100.00
2023-05-11T02:37:25.070Z,100.00
2023-05-11T02:38:26.071Z,100.00
2023-05-11T02:39:23.912Z,100.00
2023-05-11T02:40:26.008Z,100.00
2023-05-11T02:41:27.151Z,100.00
2023-05-11T02:42:24.471Z,100.00
2023-05-11T02:43:24.430Z,100.00
2023-05-11T02:44:23.191Z,100.00
2023-05-11T02:45:20.507Z,100.00
2023-05-11T02:46:27.310Z,100.00
2023-05-11T02:47:28.077Z,100.00
2023-05-11T02:48:28.167Z,100.00
2023-05-11T02:49:25.968Z,100.00
2023-05-11T02:50:24.610Z,100.00
2023-05-11T02:51:24.404Z,100.00
2023-05-11T02:52:22.896Z,100.00
2023-05-11T02:53:20.609Z,100.00
2023-05-11T02:54:18.271Z,100.00
2023-05-11T02:55:17.496Z,100.00
2023-05-11T02:56:14.508Z,100.00
2023-05-11T02:57:11.675Z,100.00
2023-05-11T02:58:11.597Z,100.00
2023-05-11T02:59:11.791Z,100.00
2023-05-11T03:00:10.101Z,100.00
2023-05-11T03:01:07.972Z,100.00
2023-05-11T03:02:05.290Z,100.00
2023-05-11T03:03:02.512Z,100.00
2023-05-11T03:03:59.602Z,100.00
2023-05-11T03:04:56.630Z,100.00
2023-05-11T03:05:53.728Z,100.00
2023-05-11T03:06:51.033Z,100.00
2023-05-11T03:07:48.108Z,100.00
2023-05-11T03:08:45.402Z,100.00
2023-05-11T03:09:42.508Z,100.00
2023-05-11T03:10:39.827Z,100.00
2023-05-11T03:11:37.693Z,100.00
2023-05-11T03:12:35.591Z,100.00
2023-05-11T03:13:33.068Z,100.00
2023-05-11T03:14:33.488Z,100.00
2023-05-11T03:15:30.824Z,100.00
2023-05-11T03:16:28.281Z,100.00
2023-05-11T03:17:25.767Z,100.00
2023-05-11T03:18:24.576Z,100.00
2023-05-11T03:19:22.524Z,100.00
2023-05-11T03:20:21.470Z,100.00
2023-05-11T03:21:21.633Z,100.00
2023-05-11T03:22:18.980Z,100.00
2023-05-11T03:23:17.497Z,100.00
2023-05-11T03:24:14.576Z,100.00
2023-05-11T03:25:12.797Z,100.00
2023-05-11T03:26:10.656Z,100.00
2023-05-11T03:27:11.690Z,100.00
2023-05-11T03:28:09.340Z,100.00
2023-05-11T03:29:08.014Z,100.00
2023-05-11T03:30:08.237Z,100.00
2023-05-11T03:31:05.254Z,100.00
2023-05-11T03:32:02.195Z,100.00
2023-05-11T03:32:59.353Z,100.00
2023-05-11T03:33:56.532Z,100.00
2023-05-11T03:34:53.578Z,100.00
2023-05-11T03:35:51.934Z,100.00
2023-05-11T03:36:49.842Z,100.00
2023-05-11T03:37:47.396Z,100.00
2023-05-11T03:38:47.013Z,100.00
2023-05-11T03:39:47.328Z,100.00
2023-05-11T03:40:44.958Z,100.00
2023-05-11T03:41:43.435Z,100.00
2023-05-11T03:42:40.676Z,100.00
2023-05-11T03:43:38.813Z,100.00
2023-05-11T03:44:36.623Z,100.00
2023-05-11T03:45:33.865Z,100.00
2023-05-11T03:46:33.132Z,100.00
2023-05-11T03:47:31.646Z,100.00
2023-05-11T03:48:28.913Z,100.00
2023-05-11T03:49:26.272Z,100.00
2023-05-11T03:50:23.684Z,100.00
2023-05-11T03:51:20.876Z,100.00
2023-05-11T03:52:18.333Z,100.00
2023-05-11T03:53:16.297Z,100.00
2023-05-11T03:54:13.644Z,100.00
2023-05-11T03:55:11.090Z,100.00
2023-05-11T03:56:09.021Z,100.00
2023-05-11T03:57:06.080Z,100.00
2023-05-11T03:58:07.054Z,100.00
2023-05-11T03:59:04.755Z,100.00
2023-05-11T04:00:01.753Z,100.00
2023-05-11T04:00:58.893Z,100.00
2023-05-11T04:01:56.583Z,100.00
2023-05-11T04:02:55.009Z,100.00
2023-05-11T04:03:53.605Z,100.00
2023-05-11T04:04:52.745Z,100.00
2023-05-11T04:05:50.179Z,100.00
2023-05-11T04:06:47.187Z,100.00
2023-05-11T04:07:44.276Z,100.00
2023-05-11T04:08:41.433Z,100.00
2023-05-11T04:09:38.434Z,100.00
2023-05-11T04:10:35.480Z,100.00
2023-05-11T04:11:36.791Z,100.00
2023-05-11T04:12:33.876Z,100.00
2023-05-11T04:13:30.874Z,100.00
2023-05-11T04:14:27.848Z,100.00
2023-05-11T04:15:24.786Z,100.00
2023-05-11T04:16:21.791Z,100.00
2023-05-11T04:17:18.829Z,100.00
2023-05-11T04:18:15.891Z,100.00
2023-05-11T04:19:12.932Z,100.00
2023-05-11T04:20:10.314Z,100.00
2023-05-11T04:21:09.168Z,100.00
2023-05-11T04:22:06.172Z,100.00
2023-05-11T04:23:04.029Z,100.00
2023-05-11T04:24:01.149Z,100.00
2023-05-11T04:24:58.129Z,100.00
2023-05-11T04:25:55.554Z,100.00
2023-05-11T04:26:56.792Z,100.00
2023-05-11T04:27:53.771Z,100.00
2023-05-11T04:28:50.818Z,100.00
2023-05-11T04:29:48.878Z,100.00
2023-05-11T04:30:45.805Z,100.00
2023-05-11T04:31:42.861Z,100.00
2023-05-11T04:32:39.871Z,100.00
2023-05-11T04:33:36.916Z,100.00
2023-05-11T04:34:33.874Z,100.00
2023-05-11T04:35:31.117Z,100.00
2023-05-11T04:36:28.089Z,100.00
2023-05-11T04:37:25.070Z,100.00
2023-05-11T04:38:23.037Z,100.00
2023-05-11T04:39:20.008Z,100.00
2023-05-11T04:40:17.667Z,100.00
2023-05-11T04:41:15.261Z,100.00
2023-05-11T04:42:12.289Z,100.00
2023-05-11T04:43:12.420Z,100.00
2023-05-11T04:44:09.609Z,100.00
2023-05-11T04:45:08.953Z,100.00
2023-05-11T04:46:06.138Z,100.00
2023-05-11T04:47:03.188Z,100.00
2023-05-11T04:48:00.310Z,100.00
2023-05-11T04:48:57.471Z,100.00
2023-05-11T04:49:54.451Z,100.00
2023-05-11T04:50:51.429Z,100.00
2023-05-11T04:51:48.415Z,100.00
2023-05-11T04:52:45.417Z,100.00
2023-05-11T04:53:42.585Z,100.00
2023-05-11T04:54:39.589Z,100.00
2023-05-11T04:55:36.608Z,100.00
2023-05-11T04:56:33.552Z,100.00
2023-05-11T04:57:30.666Z,100.00
2023-05-11T04:58:27.683Z,100.00
2023-05-11T04:59:24.768Z,100.00
2023-05-11T05:00:22.356Z,100.00
2023-05-11T05:01:19.503Z,100.00
2023-05-11T05:02:16.464Z,100.00
2023-05-11T05:03:13.451Z,100.00
2023-05-11T05:04:10.613Z,100.00
2023-05-11T05:05:08.269Z,100.00
2023-05-11T05:06:05.310Z,100.00
2023-05-11T05:07:02.412Z,100.00
2023-05-11T05:07:59.473Z,100.00
2023-05-11T05:08:56.517Z,100.00
2023-05-11T05:09:53.573Z,100.00
2023-05-11T05:10:50.595Z,100.00
2023-05-11T05:11:47.592Z,100.00
2023-05-11T05:12:44.561Z,100.00
2023-05-11T05:13:41.613Z,100.00
2023-05-11T05:14:38.595Z,100.00
2023-05-11T05:15:35.594Z,100.00
2023-05-11T05:16:32.795Z,100.00
2023-05-11T05:17:30.050Z,100.00
2023-05-11T05:18:27.513Z,100.00
2023-05-11T05:19:24.574Z,100.00
2023-05-11T05:20:21.517Z,100.00
2023-05-11T05:21:18.515Z,100.00
2023-05-11T05:22:16.066Z,100.00
2023-05-11T05:23:13.054Z,100.00
2023-05-11T05:24:11.603Z,100.00
2023-05-11T05:25:09.434Z,100.00
2023-05-11T05:26:06.461Z,100.00
2023-05-11T05:27:03.514Z,100.00
2023-05-11T05:28:00.520Z,100.00
2023-05-11T05:28:57.455Z,100.00
2023-05-11T05:29:54.459Z,100.00
2023-05-11T05:30:51.605Z,100.00
2023-05-11T05:31:48.698Z,100.00
2023-05-11T05:32:45.959Z,100.00
2023-05-11T05:33:43.276Z,100.00
2023-05-11T05:34:40.316Z,100.00
2023-05-11T05:35:37.400Z,100.00
2023-05-11T05:36:34.336Z,100.00
2023-05-11T05:37:31.334Z,100.00
2023-05-11T05:38:28.352Z,100.00
2023-05-11T05:39:25.316Z,100.00
2023-05-11T05:40:22.256Z,100.00
2023-05-11T05:41:19.295Z,100.00
2023-05-11T05:42:16.301Z,100.00
2023-05-11T05:43:13.284Z,100.00
2023-05-11T05:44:10.312Z,100.00
2023-05-11T05:45:10.588Z,100.00
2023-05-11T05:46:11.813Z,100.00
2023-05-11T05:47:11.873Z,100.00
2023-05-11T05:48:12.018Z,100.00
2023-05-11T05:49:09.132Z,100.00
2023-05-11T05:50:07.618Z,100.00
2023-05-11T05:51:04.664Z,100.00
2023-05-11T05:52:01.661Z,100.00
2023-05-11T05:52:58.853Z,100.00
2023-05-11T05:53:55.856Z,100.00
2023-05-11T05:54:52.794Z,100.00
2023-05-11T05:55:49.850Z,100.00
2023-05-11T05:56:46.814Z,100.00
2023-05-11T05:57:43.853Z,100.00
2023-05-11T05:58:41.124Z,100.00
2023-05-11T05:59:38.114Z,100.00
2023-05-11T06:00:36.091Z,100.00
2023-05-11T06:01:33.319Z,100.00
2023-05-11T06:02:30.364Z,100.00
2023-05-11T06:03:29.332Z,100.00
2023-05-11T06:04:26.922Z,100.00
2023-05-11T06:05:23.952Z,100.00
2023-05-11T06:06:21.044Z,100.00
2023-05-11T06:07:17.951Z,100.00
2023-05-11T06:08:14.904Z,100.00
2023-05-11T06:09:12.233Z,100.00
2023-05-11T06:10:09.265Z,100.00
2023-05-11T06:11:06.354Z,100.00
2023-05-11T06:12:03.373Z,100.00
2023-05-11T06:13:00.530Z,100.00
2023-05-11T06:13:58.085Z,100.00
2023-05-11T06:14:55.164Z,100.00
2023-05-11T06:15:52.234Z,100.00
2023-05-11T06:16:49.913Z,100.00
2023-05-11T06:17:46.871Z,100.00
2023-05-11T06:18:44.842Z,100.00
2023-05-11T06:19:41.889Z,100.00
2023-05-11T06:20:38.917Z,100.00
2023-05-11T06:21:35.967Z,100.00
2023-05-11T06:22:32.912Z,100.00
2023-05-11T06:23:29.855Z,100.00
2023-05-11T06:24:26.894Z,100.00
2023-05-11T06:25:24.080Z,100.00
2023-05-11T06:26:25.318Z,100.00
2023-05-11T06:27:22.474Z,100.00
2023-05-11T06:28:19.471Z,100.00
2023-05-11T06:29:16.680Z,100.00
2023-05-11T06:30:13.975Z,100.00
2023-05-11T06:31:11.037Z,100.00
2023-05-11T06:32:08.309Z,100.00
2023-05-11T06:33:05.321Z,100.00
2023-05-11T06:34:02.359Z,100.00
2023-05-11T06:34:59.325Z,100.00
2023-05-11T06:35:56.326Z,100.00
2023-05-11T06:36:53.357Z,100.00
2023-05-11T06:37:50.368Z,100.00
2023-05-11T06:38:47.359Z,100.00
2023-05-11T06:39:44.524Z,100.00
2023-05-11T06:40:41.622Z,100.00
2023-05-11T06:41:38.956Z,100.00
2023-05-11T06:42:36.093Z,100.00
2023-05-11T06:43:33.124Z,100.00
2023-05-11T06:44:30.255Z,100.00
2023-05-11T06:45:27.312Z,100.00
2023-05-11T06:46:24.404Z,100.00
2023-05-11T06:47:21.544Z,99.63
2023-05-11T06:48:18.571Z,97.01
2023-05-11T06:49:15.917Z,97.02
2023-05-11T06:50:12.913Z,98.37
2023-05-11T06:51:13.070Z,94.89
2023-05-11T06:52:10.433Z,94.27
2023-05-11T06:53:08.596Z,95.37
2023-05-11T06:54:05.915Z,95.90
2023-05-11T06:55:02.886Z,95.01
2023-05-11T06:55:59.851Z,95.21
2023-05-11T06:56:56.795Z,95.53
2023-05-11T06:57:53.852Z,93.11
2023-05-11T06:58:50.972Z,94.82
2023-05-11T06:59:47.980Z,93.47
2023-05-11T07:00:45.117Z,93.07
2023-05-11T07:01:42.247Z,91.93
2023-05-11T07:02:39.374Z,95.67
2023-05-11T07:03:36.462Z,91.84
2023-05-11T07:04:33.516Z,90.92
2023-05-11T07:05:30.860Z,89.94
2023-05-11T07:06:28.075Z,87.39
2023-05-11T07:07:25.032Z,86.39
2023-05-11T07:08:22.010Z,87.87
2023-05-11T07:09:19.156Z,88.01
2023-05-11T07:10:16.397Z,85.49
2023-05-11T07:11:15.574Z,85.69
2023-05-11T07:12:13.418Z,84.58
2023-05-11T07:13:11.313Z,84.63
2023-05-11T07:14:08.973Z,85.26
2023-05-11T07:15:06.717Z,85.23
2023-05-11T07:16:03.819Z,86.57
2023-05-11T07:17:00.861Z,84.94
2023-05-11T07:17:57.877Z,83.25
2023-05-11T07:18:55.112Z,84.04
2023-05-11T07:19:52.762Z,82.98
2023-05-11T07:20:50.506Z,84.61
2023-05-11T07:21:47.810Z,82.30
2023-05-11T07:22:45.072Z,83.48
2023-05-11T07:23:43.191Z,82.71
2023-05-11T07:24:40.194Z,81.52
2023-05-11T07:25:37.330Z,79.72
2023-05-11T07:26:34.429Z,78.75
2023-05-11T07:27:33.526Z,79.53
2023-05-11T07:28:30.530Z,78.83
2023-05-11T07:29:27.575Z,78.92
2023-05-11T07:30:26.190Z,78.79
2023-05-11T07:31:23.294Z,78.79
2023-05-11T07:32:20.505Z,78.82
2023-05-11T07:33:17.600Z,76.57
2023-05-11T07:34:14.691Z,77.45
2023-05-11T07:35:11.673Z,78.59
2023-05-11T07:36:08.786Z,79.77
2023-05-11T07:37:05.754Z,77.45
2023-05-11T07:38:04.050Z,74.70
2023-05-11T07:39:01.610Z,75.26
2023-05-11T07:39:58.550Z,75.96
2023-05-11T07:40:56.720Z,77.71
2023-05-11T07:42:01.432Z,75.13
2023-05-11T07:42:58.735Z,75.10
2023-05-11T07:43:55.731Z,75.51
2023-05-11T07:44:52.688Z,75.01
2023-05-11T07:45:53.462Z,76.77
2023-05-11T07:46:50.671Z,71.41
2023-05-11T07:47:47.978Z,71.60
2023-05-11T07:48:46.172Z,71.32
2023-05-11T07:49:44.185Z,73.28
2023-05-11T07:50:42.745Z,73.96
2023-05-11T07:51:39.711Z,73.63
2023-05-11T07:52:36.673Z,73.88
2023-05-11T07:53:35.563Z,73.82
2023-05-11T07:54:32.553Z,74.80
2023-05-11T07:55:30.869Z,74.97
2023-05-11T07:56:27.822Z,73.29
2023-05-11T07:57:24.799Z,71.88
2023-05-11T07:58:21.744Z,70.86
2023-05-11T07:59:18.801Z,70.59
2023-05-11T08:00:16.441Z,70.12
2023-05-11T08:01:13.659Z,70.31
2023-05-11T08:02:12.918Z,69.86
2023-05-11T08:03:10.299Z,69.66
2023-05-11T08:04:07.884Z,70.06
2023-05-11T08:05:05.194Z,74.55
2023-05-11T08:06:02.207Z,69.77
2023-05-11T08:06:59.302Z,71.13
2023-05-11T08:07:56.313Z,70.91
2023-05-11T08:08:53.263Z,68.63
2023-05-11T08:09:50.258Z,69.93
2023-05-11T08:10:47.221Z,69.28
2023-05-11T08:11:44.289Z,68.47
2023-05-11T08:12:41.383Z,69.35
2023-05-11T08:13:38.412Z,67.77
2023-05-11T08:14:35.395Z,70.25
2023-05-11T08:15:32.503Z,68.64
2023-05-11T08:16:29.665Z,69.52
2023-05-11T08:17:27.204Z,68.19
2023-05-11T08:18:24.393Z,70.27
2023-05-11T08:19:21.499Z,71.37
2023-05-11T08:20:18.758Z,68.68
2023-05-11T08:21:15.900Z,69.47
2023-05-11T08:22:13.033Z,68.34
2023-05-11T08:23:11.247Z,66.21
2023-05-11T08:24:08.484Z,67.63
2023-05-11T08:25:05.977Z,67.14
2023-05-11T08:26:03.275Z,67.64
2023-05-11T08:27:00.394Z,64.70
2023-05-11T08:27:57.497Z,65.31
2023-05-11T08:28:54.654Z,65.88
2023-05-11T08:29:51.734Z,66.79
2023-05-11T08:30:58.429Z,68.29
2023-05-11T08:31:55.599Z,68.73
2023-05-11T08:32:58.376Z,67.12
2023-05-11T08:33:56.603Z,64.15
2023-05-11T08:34:54.144Z,64.41
2023-05-11T08:35:52.030Z,64.21
2023-05-11T08:36:49.252Z,65.45
2023-05-11T08:37:46.714Z,64.51
2023-05-11T08:38:44.098Z,65.51
2023-05-11T08:39:47.180Z,65.47
2023-05-11T08:40:48.355Z,64.77
2023-05-11T08:41:46.713Z,66.13
2023-05-11T08:42:44.858Z,65.31
2023-05-11T08:43:42.009Z,64.69
2023-05-11T08:44:39.215Z,64.75
2023-05-11T08:45:38.700Z,65.44
2023-05-11T08:46:39.899Z,66.16
2023-05-11T08:47:37.652Z,65.52
2023-05-11T08:48:35.422Z,66.19
2023-05-11T08:49:33.101Z,66.16
2023-05-11T08:50:30.263Z,66.72
2023-05-11T08:51:28.679Z,64.50
2023-05-11T08:52:27.191Z,62.76
2023-05-11T08:53:24.479Z,61.41
2023-05-11T08:54:21.787Z,60.16
2023-05-11T08:55:19.756Z,58.99
2023-05-11T08:56:17.571Z,58.79
2023-05-11T08:57:14.855Z,59.41
2023-05-11T08:58:15.392Z,60.42
2023-05-11T08:59:14.461Z,61.31
2023-05-11T09:00:12.378Z,62.28
2023-05-11T09:01:12.544Z,61.84
2023-05-11T09:02:11.454Z,60.77
2023-05-11T09:03:09.625Z,62.00
2023-05-11T09:04:07.248Z,59.22
2023-05-11T09:05:04.878Z,58.95
2023-05-11T09:06:04.733Z,58.86
2023-05-11T09:07:01.849Z,57.73
2023-05-11T09:08:02.871Z,58.03
2023-05-11T09:08:59.993Z,58.66
2023-05-11T09:09:57.208Z,59.05
2023-05-11T09:10:54.921Z,54.10
2023-05-11T09:11:53.495Z,53.17
2023-05-11T09:12:50.825Z,52.53
2023-05-11T09:13:48.091Z,51.82
2023-05-11T09:14:47.012Z,53.52
2023-05-11T09:15:44.214Z,54.46
2023-05-11T09:16:41.906Z,53.82
2023-05-11T09:17:39.076Z,53.26
2023-05-11T09:18:36.361Z,53.97
2023-05-11T09:19:33.891Z,54.29
2023-05-11T09:20:32.528Z,54.45
2023-05-11T09:21:31.598Z,52.62
2023-05-11T09:22:31.386Z,53.46
2023-05-11T09:23:29.783Z,55.54
2023-05-11T09:24:26.877Z,53.85
2023-05-11T09:25:24.972Z,54.79
2023-05-11T09:26:24.655Z,52.61
2023-05-11T09:27:25.410Z,53.18
2023-05-11T09:28:27.023Z,54.10
2023-05-11T09:30:27.856Z,51.21
2023-05-11T09:31:45.280Z,50.57
2023-05-11T09:33:02.707Z,50.59
2023-05-11T09:34:13.139Z,49.80
2023-05-11T09:35:26.105Z,51.03
2023-05-11T09:36:26.359Z,50.15
2023-05-11T09:37:23.293Z,49.60
2023-05-11T09:38:20.993Z,48.64
2023-05-11T09:39:35.034Z,48.17
2023-05-11T09:40:36.626Z,49.86
2023-05-11T09:41:35.406Z,48.06
2023-05-11T09:42:32.885Z,48.25
2023-05-11T09:43:31.233Z,48.88
2023-05-11T09:44:31.929Z,47.86
2023-05-11T09:45:38.843Z,46.93
2023-05-11T09:46:37.359Z,48.02
2023-05-11T09:47:40.479Z,48.54
2023-05-11T09:48:37.979Z,47.32
2023-05-11T09:49:34.996Z,48.05
2023-05-11T09:50:36.400Z,47.22
2023-05-11T09:51:35.193Z,46.30
2023-05-11T09:52:32.726Z,45.90
2023-05-11T09:53:41.190Z,45.30
2023-05-11T09:54:48.220Z,45.51
2023-05-11T09:55:52.356Z,45.57
2023-05-11T09:57:00.588Z,45.69
2023-05-11T09:57:59.154Z,43.83
2023-05-11T09:58:57.694Z,44.37
2023-05-11T09:59:56.700Z,44.86
2023-05-11T10:00:54.276Z,43.81
2023-05-11T10:01:51.340Z,44.86
2023-05-11T10:03:03.897Z,44.54
2023-05-11T10:04:17.789Z,45.64
2023-05-11T10:05:19.623Z,44.45
2023-05-11T10:06:19.881Z,42.92
2023-05-11T10:07:33.120Z,44.07
2023-05-11T10:08:31.242Z,43.12
2023-05-11T10:09:28.781Z,40.63
2023-05-11T10:10:28.398Z,41.33
2023-05-11T10:11:26.367Z,40.07
2023-05-11T10:12:25.900Z,40.08
2023-05-11T10:13:24.418Z,39.73
2023-05-11T10:14:22.874Z,39.12
2023-05-11T10:15:21.610Z,39.91
2023-05-11T10:16:20.164Z,40.11
2023-05-11T10:17:17.570Z,39.11
2023-05-11T10:18:14.629Z,39.27
2023-05-11T10:19:12.975Z,40.35
2023-05-11T10:20:10.283Z,39.72
2023-05-11T10:21:07.751Z,39.83
2023-05-11T10:22:06.065Z,38.97
2023-05-11T10:23:03.644Z,36.69
2023-05-11T10:25:59.041Z,36.76
2023-05-11T10:26:57.647Z,36.42
2023-05-11T10:27:55.557Z,36.21
2023-05-11T10:28:53.053Z,35.91
2023-05-11T10:29:50.793Z,36.31
2023-05-11T10:30:47.952Z,35.19
2023-05-11T10:31:46.180Z,35.88
2023-05-11T10:32:50.075Z,36.71
2023-05-11T10:33:52.975Z,35.36
2023-05-11T10:34:52.806Z,34.22
2023-05-11T10:35:53.921Z,34.99
2023-05-11T10:36:52.659Z,33.56
2023-05-11T10:37:50.809Z,34.27
2023-05-11T10:38:48.021Z,33.97
2023-05-11T10:39:49.280Z,33.61
2023-05-11T10:40:48.029Z,33.91
2023-05-11T10:42:02.531Z,33.40
2023-05-11T10:43:51.853Z,32.02
2023-05-11T10:44:57.213Z,31.87
2023-05-11T10:46:10.538Z,32.25
2023-05-11T10:47:28.658Z,31.94
2023-05-11T10:48:34.540Z,31.70
2023-05-11T10:49:38.005Z,31.75
2023-05-11T10:51:12.630Z,32.64
2023-05-11T10:52:18.430Z,32.47
2023-05-11T10:53:30.567Z,33.06
2023-05-11T10:54:38.144Z,32.85
2023-05-11T10:55:35.033Z,31.55
2023-05-11T10:56:44.002Z,32.59
2023-05-11T10:57:58.132Z,32.85
2023-05-11T10:59:28.694Z,33.65
2023-05-11T11:00:44.136Z,33.22
2023-05-11T11:01:44.759Z,32.44
2023-05-11T11:02:43.390Z,32.10
2023-05-11T11:03:40.470Z,32.12
2023-05-11T11:04:45.203Z,32.99
2023-05-11T11:05:44.180Z,32.05
2023-05-11T11:06:43.381Z,32.68
2023-05-11T11:08:09.615Z,31.76
2023-05-11T11:09:09.001Z,31.36
2023-05-11T11:10:07.697Z,31.42
2023-05-11T11:11:40.504Z,32.19
2023-05-11T11:12:37.927Z,32.34
2023-05-11T11:13:57.875Z,31.46
2023-05-11T11:15:04.868Z,32.40
2023-05-11T11:16:12.697Z,32.85
2023-05-11T11:17:17.531Z,32.15
2023-05-11T11:18:22.618Z,31.28
2023-05-11T11:19:31.863Z,32.43
2023-05-11T11:20:51.040Z,32.18
2023-05-11T11:21:48.969Z,31.28
2023-05-11T11:22:48.375Z,30.92
2023-05-11T11:23:49.287Z,31.81
2023-05-11T11:24:47.077Z,31.97
2023-05-11T11:25:56.797Z,31.54
2023-05-11T11:26:53.752Z,32.11
2023-05-11T11:27:50.633Z,31.61
2023-05-11T11:29:02.534Z,31.54
2023-05-11T11:30:21.651Z,31.44
2023-05-11T11:31:28.545Z,31.99
2023-05-11T11:32:26.840Z,32.00
2023-05-11T11:33:23.816Z,32.66
2023-05-11T11:34:29.696Z,33.25
2023-05-11T11:35:46.258Z,33.24
2023-05-11T11:36:55.493Z,32.76
2023-05-11T11:38:03.295Z,32.26
2023-05-11T11:39:00.483Z,32.02
2023-05-11T11:40:09.424Z,32.30
2023-05-11T11:41:10.603Z,31.99
2023-05-11T11:42:09.796Z,31.82
2023-05-11T11:43:14.469Z,31.33
2023-05-11T11:44:23.402Z,31.73
2023-05-11T11:45:28.392Z,31.85
2023-05-11T11:46:31.161Z,32.28
2023-05-11T11:47:38.027Z,32.50
2023-05-11T11:48:36.751Z,31.96
2023-05-11T11:49:33.956Z,32.21
2023-05-11T11:50:31.114Z,31.00
2023-05-11T11:51:33.725Z,31.63
2023-05-11T11:52:30.658Z,31.21
2023-05-11T11:53:37.871Z,30.87
2023-05-11T11:54:42.272Z,31.08
2023-05-11T11:55:50.421Z,31.97
2023-05-11T11:56:47.506Z,31.86
2023-05-11T11:57:49.555Z,31.23
2023-05-11T11:58:46.897Z,31.04
2023-05-11T11:59:50.130Z,31.34
2023-05-11T12:00:48.350Z,31.22
2023-05-11T12:01:46.149Z,31.54
2023-05-11T12:02:45.145Z,31.21
2023-05-11T12:03:45.037Z,31.02
2023-05-11T12:04:52.658Z,30.12
2023-05-11T12:05:51.450Z,30.76
2023-05-11T12:06:56.405Z,31.15
2023-05-11T12:07:54.169Z,31.36
2023-05-11T12:08:51.428Z,31.95
2023-05-11T12:09:48.629Z,31.60
2023-05-11T12:10:48.568Z,31.11
2023-05-11T12:11:48.107Z,32.84
2023-05-11T12:12:46.128Z,32.04
2023-05-11T12:13:44.198Z,31.45
2023-05-11T12:14:42.328Z,30.76
2023-05-11T12:15:39.360Z,31.20
2023-05-11T12:16:36.413Z,31.07
2023-05-11T12:17:35.063Z,30.97
2023-05-11T12:18:32.368Z,32.11
2023-05-11T12:19:29.386Z,31.31
2023-05-11T12:20:26.594Z,32.03
2023-05-11T12:21:28.587Z,31.34
2023-05-11T12:22:26.627Z,32.04
2023-05-11T12:23:24.135Z,31.68
2023-05-11T12:24:21.483Z,31.61
2023-05-11T12:25:20.481Z,31.70
2023-05-11T12:26:20.809Z,31.58
2023-05-11T12:27:19.959Z,32.52
2023-05-11T12:28:20.052Z,31.41
2023-05-11T12:29:19.008Z,31.96
2023-05-11T12:30:26.723Z,31.58
2023-05-11T12:31:23.780Z,31.74
2023-05-11T12:32:33.821Z,31.66
2023-05-11T12:33:31.472Z,31.51
2023-05-11T12:34:28.470Z,30.45
2023-05-11T12:35:30.233Z,30.74
2023-05-11T12:36:47.289Z,31.04
2023-05-11T12:37:45.377Z,30.90